Terminal Aerodrome Forecast
Issued by NWS Boston, MA

Home | Current Version | Previous Version | Text Only | Print | Product List | Glossary On
Versions: 1 2 3 4 5 6 7 8 9 10 11 12 13 14 15 16 17 18 19 20 21
000
FTUS41 KBOX 061131
TAFBDL
TAF
KBDL 061131Z 0612/0718 VRB03KT P6SM SKC
     FM061500 02004KT P6SM SCT250
     FM062300 VRB03KT P6SM VCSH SCT040 BKN080
     FM070400 05004KT P6SM -RASN OVC040
     FM070600 04004KT 2SM -RASN OVC015
     FM071000 03004KT 3SM BR VCSH OVC015
     FM071300 04004KT 6SM BR VCSH OVC020
     FM071500 VRB03KT P6SM OVC025=

USA.gov is the U.S. government's official web portal to all federal, state and local government web resources and services.